Time;durP1;ratioP1;P1;durP2;ratioP2;P2;SDS_P1;SDS_P2;PMS_P1;PMS_P2;Temp;Humidity;BMP_temperature;BMP_pressure;BME280_temperature;BME280_humidity;BME280_pressure;Samples;Min_cycle;Max_cycle;Signal;HPM_P1;HPM_P2
2021/08/19 00:00:37;;;;;;;7.23;3.10;;;16.80;99.90;;;;;;5008775;28;20215;-86
2021/08/19 00:03:03;;;;;;;4.33;2.37;;;16.80;99.90;;;;;;5017189;28;20269;-88
2021/08/19 00:05:29;;;;;;;6.47;2.53;;;16.90;99.90;;;;;;5008245;28;20221;-87
2021/08/19 00:07:55;;;;;;;4.17;2.47;;;16.80;99.90;;;;;;5000739;28;21385;-86
2021/08/19 00:10:21;;;;;;;5.50;2.80;;;16.90;99.90;;;;;;4942747;28;20226;-87
2021/08/19 00:12:47;;;;;;;3.20;2.00;;;16.90;99.90;;;;;;4992553;28;20230;-87
2021/08/19 00:15:13;;;;;;;2.13;1.33;;;16.90;99.90;;;;;;5013904;28;20257;-86
2021/08/19 00:17:39;;;;;;;3.87;2.53;;;16.90;99.90;;;;;;5008125;28;20656;-87
2021/08/19 00:20:06;;;;;;;3.13;2.17;;;16.90;99.90;;;;;;5007638;28;20209;-87
2021/08/19 00:22:32;;;;;;;3.90;3.00;;;16.90;99.90;;;;;;5008231;28;20231;-87
2021/08/19 00:24:59;;;;;;;3.00;2.07;;;16.90;99.90;;;;;;4990846;28;20218;-87
2021/08/19 00:27:25;;;;;;;3.93;2.13;;;16.90;99.90;;;;;;5009125;28;20280;-87
2021/08/19 00:29:51;;;;;;;3.90;2.20;;;16.90;99.90;;;;;;5008511;28;20681;-87
2021/08/19 00:32:17;;;;;;;4.60;2.33;;;17.00;99.90;;;;;;5014605;28;20214;-87
2021/08/19 00:34:43;;;;;;;7.27;3.20;;;17.00;99.90;;;;;;5006857;28;20192;-87
2021/08/19 00:37:08;;;;;;;4.30;2.77;;;17.00;99.90;;;;;;5007690;28;20223;-87
2021/08/19 00:39:35;;;;;;;3.90;3.13;;;17.00;99.90;;;;;;5000085;28;20211;-87
2021/08/19 00:42:01;;;;;;;5.67;2.97;;;17.10;99.90;;;;;;5016156;28;20215;-88
2021/08/19 00:44:27;;;;;;;6.27;2.37;;;17.00;99.90;;;;;;5013255;28;20265;-86
2021/08/19 00:46:52;;;;;;;3.77;3.10;;;17.00;99.90;;;;;;5017629;28;20187;-86
2021/08/19 00:49:18;;;;;;;7.13;4.37;;;17.10;99.90;;;;;;5007270;28;20219;-88
2021/08/19 00:51:53;;;;;;;6.37;3.93;;;17.10;99.90;;;;;;5007964;28;20264;-86
2021/08/19 00:54:27;;;;;;;5.83;3.33;;;17.20;99.90;;;;;;5007524;28;20213;-87
2021/08/19 00:56:54;;;;;;;5.20;3.77;;;17.10;99.90;;;;;;5000765;28;20198;-86
2021/08/19 00:59:23;;;;;;;10.23;5.10;;;17.20;99.90;;;;;;5014177;28;20626;-87
2021/08/19 01:01:50;;;;;;;8.07;4.57;;;17.20;99.90;;;;;;5013246;28;20187;-87
2021/08/19 01:04:16;;;;;;;8.40;3.90;;;17.20;99.90;;;;;;5007325;28;21125;-87
2021/08/19 01:06:42;;;;;;;7.10;4.10;;;17.10;99.90;;;;;;5006396;28;20321;-87
2021/08/19 01:09:08;;;;;;;11.20;5.13;;;17.10;99.90;;;;;;5001166;28;20249;-87
2021/08/19 01:11:35;;;;;;;7.07;3.77;;;17.10;99.90;;;;;;5006963;28;21299;-86
2021/08/19 01:14:06;;;;;;;7.27;4.53;;;17.10;99.90;;;;;;5016017;28;20664;-86
2021/08/19 01:16:32;;;;;;;8.73;4.90;;;17.10;99.90;;;;;;5032850;28;20662;-89
2021/08/19 01:18:58;;;;;;;6.07;4.07;;;17.10;99.90;;;;;;5012187;28;20317;-88
2021/08/19 01:21:24;;;;;;;6.13;3.77;;;17.00;99.90;;;;;;5007150;28;20306;-86
2021/08/19 01:23:50;;;;;;;4.53;3.37;;;16.90;99.90;;;;;;5006055;28;20223;-86
2021/08/19 01:26:19;;;;;;;5.27;3.27;;;16.70;99.90;;;;;;5007569;28;20218;-86
2021/08/19 01:28:46;;;;;;;4.70;3.67;;;16.70;99.90;;;;;;5015621;28;20677;-86
2021/08/19 01:31:18;;;;;;;4.17;2.83;;;16.60;99.90;;;;;;5006810;28;20285;-86
2021/08/19 01:33:45;;;;;;;6.27;3.53;;;16.70;99.90;;;;;;5014846;28;20382;-87
2021/08/19 01:36:12;;;;;;;11.87;5.23;;;16.70;99.90;;;;;;5014136;28;20254;-87
2021/08/19 01:38:39;;;;;;;8.63;4.97;;;16.80;99.90;;;;;;5014509;28;20222;-87
2021/08/19 01:41:04;;;;;;;8.07;5.00;;;16.90;99.90;;;;;;5015213;28;20642;-87
2021/08/19 01:43:31;;;;;;;11.67;6.47;;;17.00;99.90;;;;;;5013782;28;20249;-87
2021/08/19 01:46:13;;;;;;;14.97;6.67;;;17.00;99.90;;;;;;5004491;28;20207;-86
2021/08/19 01:48:43;;;;;;;13.50;5.93;;;17.10;99.90;;;;;;4995313;28;20934;-87
2021/08/19 01:51:10;;;;;;;9.97;5.63;;;17.10;99.90;;;;;;4995677;28;20268;-88
2021/08/19 01:53:36;;;;;;;10.13;6.67;;;17.00;99.90;;;;;;5014237;28;20227;-87
2021/08/19 01:56:02;;;;;;;15.13;6.40;;;17.00;99.90;;;;;;5005060;28;20615;-86
2021/08/19 01:58:28;;;;;;;9.13;5.83;;;17.10;99.90;;;;;;4989379;28;20287;-87
2021/08/19 02:00:54;;;;;;;11.53;6.63;;;17.10;99.90;;;;;;4988679;28;20250;-87
2021/08/19 02:03:20;;;;;;;7.67;5.10;;;17.00;99.90;;;;;;5005731;28;20226;-89
2021/08/19 02:05:49;;;;;;;12.07;5.73;;;17.10;99.90;;;;;;5004904;28;20253;-86
2021/08/19 02:08:16;;;;;;;10.40;5.63;;;17.00;99.90;;;;;;4998895;28;20305;-86
2021/08/19 02:10:43;;;;;;;9.87;5.80;;;17.00;99.90;;;;;;5005723;28;20278;-88
2021/08/19 02:13:10;;;;;;;9.53;5.47;;;17.00;99.90;;;;;;5005569;28;20750;-86
2021/08/19 02:15:36;;;;;;;9.13;5.37;;;17.00;99.90;;;;;;5015569;28;20301;-86
2021/08/19 02:18:02;;;;;;;8.63;4.10;;;17.00;99.90;;;;;;4995723;28;20295;-87
2021/08/19 02:20:28;;;;;;;10.40;6.27;;;17.00;99.90;;;;;;5004885;28;20230;-87
2021/08/19 02:22:59;;;;;;;10.10;5.73;;;17.00;99.90;;;;;;5006726;28;20298;-86
2021/08/19 02:25:25;;;;;;;12.60;6.60;;;17.00;99.90;;;;;;5016142;28;20207;-87
2021/08/19 02:27:51;;;;;;;9.13;6.33;;;16.90;99.90;;;;;;4988290;28;20281;-87
2021/08/19 02:30:17;;;;;;;9.60;5.50;;;16.90;99.90;;;;;;5012790;28;20616;-87
2021/08/19 02:32:43;;;;;;;7.60;5.07;;;16.90;99.90;;;;;;5012925;28;20226;-86
2021/08/19 02:35:09;;;;;;;11.30;5.10;;;16.90;99.90;;;;;;5005614;28;20240;-87
2021/08/19 02:37:35;;;;;;;10.73;6.03;;;16.90;99.90;;;;;;5013416;28;20188;-88
2021/08/19 02:40:01;;;;;;;9.10;4.37;;;16.90;99.90;;;;;;5012385;28;20242;-87
2021/08/19 02:42:26;;;;;;;13.20;6.07;;;16.90;99.90;;;;;;4988753;28;20261;-87
2021/08/19 02:44:53;;;;;;;11.87;6.13;;;16.90;99.90;;;;;;5005102;28;20660;-87
2021/08/19 02:47:18;;;;;;;8.90;5.87;;;16.90;99.90;;;;;;5005697;28;20584;-86
2021/08/19 02:49:44;;;;;;;8.57;5.70;;;16.90;99.90;;;;;;4998534;28;20191;-87
2021/08/19 02:52:10;;;;;;;12.03;5.67;;;16.90;99.90;;;;;;5004035;28;20211;-87
2021/08/19 02:54:36;;;;;;;10.20;5.00;;;16.90;99.90;;;;;;5004787;28;20223;-87
2021/08/19 02:57:01;;;;;;;8.23;5.60;;;16.80;99.90;;;;;;5005644;28;20237;-86
2021/08/19 02:59:27;;;;;;;10.77;5.87;;;16.80;99.90;;;;;;5007999;28;20293;-86
2021/08/19 03:01:53;;;;;;;9.40;4.87;;;16.90;99.90;;;;;;4992935;28;20187;-86
2021/08/19 03:04:19;;;;;;;8.50;5.53;;;16.90;99.90;;;;;;4993728;28;20272;-87
2021/08/19 03:06:44;;;;;;;8.63;5.33;;;16.90;99.90;;;;;;5008465;28;20242;-87
2021/08/19 03:09:10;;;;;;;8.17;4.83;;;16.90;99.90;;;;;;5008747;28;20707;-86
2021/08/19 03:11:36;;;;;;;9.83;4.87;;;16.90;99.90;;;;;;4992256;28;20215;-86
2021/08/19 03:14:02;;;;;;;13.70;5.80;;;16.90;99.90;;;;;;5017702;28;20241;-87
2021/08/19 03:16:28;;;;;;;11.20;6.00;;;16.90;99.90;;;;;;5010253;28;20183;-86
2021/08/19 03:18:53;;;;;;;10.00;5.70;;;16.90;99.90;;;;;;5017922;28;21209;-88
2021/08/19 03:21:20;;;;;;;8.97;5.00;;;16.90;99.90;;;;;;5007332;28;20230;-87
2021/08/19 03:23:47;;;;;;;10.73;4.70;;;16.90;99.90;;;;;;5007825;28;20264;-87
2021/08/19 03:26:15;;;;;;;8.03;5.27;;;16.90;99.90;;;;;;5008738;28;20202;-88
2021/08/19 03:28:42;;;;;;;8.67;6.07;;;16.90;99.90;;;;;;5018922;28;20241;-87
2021/08/19 03:31:08;;;;;;;10.77;5.93;;;16.90;99.90;;;;;;5017696;28;20221;-87
2021/08/19 03:33:34;;;;;;;11.73;5.93;;;16.90;99.90;;;;;;4991273;28;20223;-87
2021/08/19 03:35:59;;;;;;;11.03;5.77;;;16.90;99.90;;;;;;5008913;28;20470;-87
2021/08/19 03:38:26;;;;;;;8.03;5.53;;;16.90;99.90;;;;;;4997128;28;20215;-87
2021/08/19 03:40:52;;;;;;;11.60;5.10;;;16.90;99.90;;;;;;5018343;28;20654;-87
2021/08/19 03:43:20;;;;;;;12.03;5.90;;;16.90;99.90;;;;;;5007799;28;20257;-86
2021/08/19 03:45:47;;;;;;;7.30;4.50;;;16.90;99.90;;;;;;5009054;28;20249;-87
2021/08/19 03:48:13;;;;;;;11.43;6.27;;;16.90;99.90;;;;;;4984102;28;20288;-87
2021/08/19 03:50:39;;;;;;;8.03;5.30;;;17.00;99.90;;;;;;5009267;28;20195;-88
2021/08/19 03:53:05;;;;;;;11.83;5.77;;;17.00;99.90;;;;;;5030849;28;20253;-87
2021/08/19 03:55:31;;;;;;;10.87;6.43;;;17.00;99.90;;;;;;5001991;28;20226;-87
2021/08/19 03:57:57;;;;;;;15.10;5.67;;;17.00;99.90;;;;;;4999416;28;20233;-86
2021/08/19 04:00:23;;;;;;;28.17;5.30;;;17.00;99.90;;;;;;5016494;28;20632;-87
2021/08/19 04:02:48;;;;;;;12.10;6.80;;;17.00;99.90;;;;;;5008290;28;20214;-87
2021/08/19 04:05:15;;;;;;;13.60;6.03;;;17.00;99.90;;;;;;5016735;28;20572;-87
2021/08/19 04:07:41;;;;;;;8.67;5.90;;;17.00;99.90;;;;;;5006766;28;20258;-88
2021/08/19 04:10:07;;;;;;;16.63;6.47;;;17.00;99.90;;;;;;5016589;28;20233;-87
2021/08/19 04:12:34;;;;;;;12.60;5.83;;;17.00;99.90;;;;;;4993623;28;20229;-87
2021/08/19 04:15:01;;;;;;;10.77;5.97;;;17.00;99.90;;;;;;5014719;28;21632;-87
2021/08/19 04:17:27;;;;;;;12.40;5.87;;;17.00;99.90;;;;;;5007440;28;20691;-86
2021/08/19 04:19:52;;;;;;;9.13;5.83;;;17.00;99.90;;;;;;5000016;28;20230;-86
2021/08/19 04:22:18;;;;;;;10.57;6.60;;;17.00;99.90;;;;;;5009704;28;20198;-88
2021/08/19 04:24:44;;;;;;;7.47;5.50;;;17.00;99.90;;;;;;5015841;28;20233;-87
2021/08/19 04:27:10;;;;;;;7.93;5.43;;;17.00;99.90;;;;;;5007799;28;20244;-87
2021/08/19 04:29:35;;;;;;;10.73;5.13;;;17.00;99.90;;;;;;5007584;28;20213;-87
2021/08/19 04:32:01;;;;;;;7.97;6.07;;;17.00;99.90;;;;;;4990811;28;20237;-87
2021/08/19 04:34:27;;;;;;;30.57;5.83;;;17.00;99.90;;;;;;5007755;28;20195;-87
2021/08/19 04:36:53;;;;;;;8.87;5.13;;;17.00;99.90;;;;;;5013305;28;20207;-86
2021/08/19 04:39:19;;;;;;;10.53;5.90;;;17.10;99.90;;;;;;5006574;28;20229;-87
2021/08/19 04:41:45;;;;;;;7.90;5.40;;;17.10;99.90;;;;;;5002704;28;20214;-84
2021/08/19 04:44:11;;;;;;;10.87;5.50;;;17.10;99.90;;;;;;4991119;28;20230;-85
2021/08/19 04:46:36;;;;;;;11.17;6.03;;;17.10;99.90;;;;;;5007271;28;20238;-84
2021/08/19 04:49:05;;;;;;;10.63;5.63;;;17.10;99.90;;;;;;5015401;28;20246;-85
2021/08/19 04:51:35;;;;;;;11.03;6.53;;;17.20;99.90;;;;;;5017676;28;20223;-83
2021/08/19 04:54:02;;;;;;;9.33;6.07;;;17.20;99.90;;;;;;4988227;28;20583;-84
2021/08/19 04:56:30;;;;;;;14.13;5.33;;;17.20;99.90;;;;;;4997726;28;20306;-86
2021/08/19 04:58:57;;;;;;;13.30;6.67;;;17.20;99.90;;;;;;5007351;28;20722;-84
2021/08/19 05:01:23;;;;;;;7.97;5.27;;;17.20;99.90;;;;;;4998462;28;20242;-84
2021/08/19 05:03:49;;;;;;;12.80;5.90;;;17.30;99.90;;;;;;5013755;28;20222;-84
2021/08/19 05:06:14;;;;;;;13.90;5.93;;;17.30;99.90;;;;;;5008625;28;20253;-84
2021/08/19 05:08:40;;;;;;;10.20;6.13;;;17.30;99.90;;;;;;5003492;28;20229;-85
2021/08/19 05:11:06;;;;;;;24.20;7.00;;;17.40;99.90;;;;;;4993643;28;20248;-85
2021/08/19 05:13:32;;;;;;;10.60;4.90;;;17.30;99.90;;;;;;4993990;28;20191;-84
2021/08/19 05:15:57;;;;;;;9.43;6.17;;;17.40;99.90;;;;;;4965402;28;20218;-84
2021/08/19 05:18:25;;;;;;;9.23;5.40;;;17.40;99.90;;;;;;4973642;28;20223;-84
2021/08/19 05:20:51;;;;;;;10.23;6.23;;;17.40;99.90;;;;;;4982835;28;20221;-84
2021/08/19 05:23:17;;;;;;;11.40;6.87;;;17.40;99.90;;;;;;5010234;28;20225;-87
2021/08/19 05:25:42;;;;;;;9.73;4.93;;;17.40;99.90;;;;;;4993163;28;20286;-86
2021/08/19 05:28:08;;;;;;;10.83;5.47;;;17.40;99.90;;;;;;4993280;28;20572;-85
2021/08/19 05:30:34;;;;;;;14.40;5.87;;;17.50;99.90;;;;;;4993871;28;20249;-84
2021/08/19 05:32:59;;;;;;;14.20;5.90;;;17.50;99.90;;;;;;4992770;28;20280;-86
2021/08/19 05:35:25;;;;;;;13.60;6.47;;;17.50;99.90;;;;;;4993435;28;20212;-84
2021/08/19 05:37:51;;;;;;;8.80;5.80;;;17.50;99.90;;;;;;5002250;28;20202;-84
2021/08/19 05:40:17;;;;;;;13.97;6.27;;;17.50;99.90;;;;;;4994608;28;20190;-83
2021/08/19 05:42:42;;;;;;;17.20;6.47;;;17.50;99.90;;;;;;5015925;28;20307;-84
2021/08/19 05:45:09;;;;;;;10.77;6.07;;;17.50;99.90;;;;;;5008069;28;21166;-86
2021/08/19 05:47:34;;;;;;;5.97;4.40;;;17.50;99.90;;;;;;5008704;28;20224;-84
2021/08/19 05:50:00;;;;;;;9.37;5.03;;;17.50;99.90;;;;;;4993175;28;20213;-84
2021/08/19 05:52:26;;;;;;;9.80;4.43;;;17.50;99.90;;;;;;5009214;28;20194;-84
2021/08/19 05:54:52;;;;;;;7.27;3.53;;;17.40;99.90;;;;;;4992954;28;20216;-87
2021/08/19 05:57:17;;;;;;;5.97;4.37;;;17.40;99.90;;;;;;5008819;28;20608;-84
2021/08/19 05:59:43;;;;;;;8.13;4.87;;;17.40;99.90;;;;;;4991763;28;20226;-83
2021/08/19 06:02:09;;;;;;;7.63;4.10;;;17.40;99.90;;;;;;5000029;28;20236;-84
2021/08/19 06:04:38;;;;;;;8.23;5.23;;;17.40;99.90;;;;;;5008870;28;20271;-84
2021/08/19 06:07:04;;;;;;;5.27;3.93;;;17.30;99.90;;;;;;4992637;28;20238;-85
2021/08/19 06:09:30;;;;;;;18.70;6.43;;;17.50;99.90;;;;;;4992516;28;20227;-84
2021/08/19 06:11:56;;;;;;;12.00;5.70;;;17.60;99.90;;;;;;5008917;28;20221;-84
2021/08/19 06:14:21;;;;;;;12.80;6.90;;;17.60;99.90;;;;;;5009759;28;20872;-84
2021/08/19 06:16:47;;;;;;;12.50;5.77;;;17.70;99.90;;;;;;4999325;28;20647;-86
2021/08/19 06:19:13;;;;;;;6.63;4.80;;;17.70;99.90;;;;;;4993444;28;20302;-85
2021/08/19 06:21:38;;;;;;;8.73;4.63;;;17.70;99.90;;;;;;5007886;28;20788;-87
2021/08/19 06:24:04;;;;;;;7.87;4.73;;;17.60;99.90;;;;;;4992188;28;20308;-85
2021/08/19 06:26:30;;;;;;;6.53;4.40;;;17.60;99.90;;;;;;4994112;28;20232;-85
2021/08/19 06:28:56;;;;;;;7.57;4.77;;;17.50;99.90;;;;;;4985508;28;20187;-81
2021/08/19 06:31:21;;;;;;;5.40;3.23;;;17.40;99.90;;;;;;4992456;28;20190;-82
2021/08/19 06:33:47;;;;;;;7.40;3.83;;;17.50;99.90;;;;;;5002918;28;20218;-87
2021/08/19 06:36:13;;;;;;;5.77;3.07;;;17.50;99.90;;;;;;5013821;28;20225;-86
2021/08/19 06:38:39;;;;;;;6.60;3.00;;;17.50;99.90;;;;;;4947387;28;20272;-87
2021/08/19 06:41:04;;;;;;;6.30;3.10;;;17.40;99.90;;;;;;4971239;28;20252;-84
2021/08/19 06:43:30;;;;;;;6.07;3.00;;;17.50;99.90;;;;;;5013669;28;21169;-89
2021/08/19 06:45:57;;;;;;;5.27;3.57;;;17.40;99.90;;;;;;4983022;28;20285;-84
2021/08/19 06:48:22;;;;;;;5.17;3.10;;;17.40;99.90;;;;;;5022830;28;20264;-84
2021/08/19 06:50:48;;;;;;;4.03;2.87;;;17.40;99.90;;;;;;5011164;28;20219;-84
2021/08/19 06:53:15;;;;;;;4.90;3.73;;;17.40;99.90;;;;;;5006295;28;20217;-85
2021/08/19 06:55:41;;;;;;;5.23;3.20;;;17.50;99.90;;;;;;5012753;28;20218;-84
2021/08/19 06:58:07;;;;;;;6.93;3.90;;;17.50;99.90;;;;;;5011817;28;20321;-86
2021/08/19 07:00:33;;;;;;;7.87;2.67;;;17.40;99.90;;;;;;4995934;28;20324;-84
2021/08/19 07:02:59;;;;;;;3.77;2.40;;;17.40;99.90;;;;;;4996332;28;20320;-87
2021/08/19 07:05:25;;;;;;;8.00;3.30;;;17.30;99.90;;;;;;5013464;28;20214;-83
2021/08/19 07:07:54;;;;;;;4.90;3.40;;;17.40;99.90;;;;;;4994641;28;20241;-84
2021/08/19 07:10:20;;;;;;;3.90;2.27;;;17.50;99.90;;;;;;5022160;28;20218;-86
2021/08/19 07:12:46;;;;;;;3.87;3.00;;;17.40;99.90;;;;;;5019651;28;20247;-85
2021/08/19 07:15:12;;;;;;;4.03;3.17;;;17.40;99.90;;;;;;4988587;28;20226;-85
2021/08/19 07:17:37;;;;;;;5.23;3.17;;;17.30;99.90;;;;;;4997277;28;20190;-87
2021/08/19 07:20:04;;;;;;;7.33;3.20;;;17.40;99.90;;;;;;5020114;28;20190;-86
2021/08/19 07:22:30;;;;;;;8.27;4.37;;;17.50;99.90;;;;;;4979379;28;21192;-85
2021/08/19 07:24:56;;;;;;;3.83;2.33;;;17.50;99.90;;;;;;4998203;28;20253;-83
2021/08/19 07:27:21;;;;;;;1.77;1.57;;;17.40;99.90;;;;;;4997473;28;20329;-84
2021/08/19 07:29:47;;;;;;;1.63;1.50;;;17.40;99.90;;;;;;5008413;28;20243;-83
2021/08/19 07:32:15;;;;;;;2.50;1.70;;;17.30;99.90;;;;;;5012886;28;20195;-84
2021/08/19 07:34:41;;;;;;;3.67;2.00;;;17.30;99.90;;;;;;4996732;28;20203;-85
2021/08/19 07:37:07;;;;;;;5.47;2.50;;;17.30;99.90;;;;;;4999694;28;20756;-85
2021/08/19 07:39:33;;;;;;;2.93;2.23;;;17.40;99.90;;;;;;4946074;28;20297;-85
2021/08/19 07:41:58;;;;;;;1.60;1.40;;;17.40;99.90;;;;;;5013664;28;20209;-84
2021/08/19 07:44:24;;;;;;;2.70;2.00;;;17.30;99.90;;;;;;4925115;28;20597;-85
2021/08/19 07:46:50;;;;;;;2.73;1.83;;;17.30;99.90;;;;;;5013331;28;20201;-84
2021/08/19 07:49:17;;;;;;;2.63;2.43;;;17.20;99.90;;;;;;5006085;28;20229;-84
2021/08/19 07:51:43;;;;;;;3.97;2.37;;;17.20;99.90;;;;;;4979551;28;20245;-85
2021/08/19 07:54:08;;;;;;;4.07;3.00;;;17.20;99.90;;;;;;5005806;28;20288;-85
2021/08/19 07:56:34;;;;;;;4.70;2.93;;;17.30;99.90;;;;;;5011699;28;20182;-86
2021/08/19 07:59:00;;;;;;;5.27;2.87;;;17.40;99.90;;;;;;5021568;28;20682;-85
2021/08/19 08:01:26;;;;;;;3.30;2.07;;;17.50;99.90;;;;;;4939103;28;20276;-85
2021/08/19 08:03:52;;;;;;;6.00;2.67;;;17.50;99.90;;;;;;5012869;28;20620;-86
2021/08/19 08:06:17;;;;;;;5.40;2.53;;;17.60;99.90;;;;;;4984303;28;20328;-84
2021/08/19 08:08:43;;;;;;;4.03;2.87;;;17.50;99.90;;;;;;4992686;28;20297;-85
2021/08/19 08:11:09;;;;;;;3.63;3.00;;;17.60;99.90;;;;;;4996493;28;20191;-87
2021/08/19 08:13:35;;;;;;;3.83;2.53;;;17.50;99.90;;;;;;5001304;28;20218;-84
2021/08/19 08:16:01;;;;;;;5.40;3.63;;;17.60;99.90;;;;;;4937886;28;20253;-85
2021/08/19 08:18:27;;;;;;;2.90;1.93;;;17.70;99.90;;;;;;5011771;28;20585;-85
2021/08/19 08:20:54;;;;;;;4.27;3.03;;;17.70;99.90;;;;;;5019242;28;20205;-88
2021/08/19 08:23:20;;;;;;;5.17;3.30;;;17.60;99.90;;;;;;5004584;28;20225;-85
2021/08/19 08:25:49;;;;;;;4.60;3.20;;;17.60;99.90;;;;;;4972588;28;20238;-84
2021/08/19 08:28:19;;;;;;;3.17;2.67;;;17.50;99.90;;;;;;4955666;28;20595;-83
2021/08/19 08:30:46;;;;;;;6.13;3.43;;;17.50;99.90;;;;;;4994642;28;20208;-83
2021/08/19 08:33:13;;;;;;;3.50;2.83;;;17.50;99.90;;;;;;4970970;28;20663;-84
2021/08/19 08:35:40;;;;;;;4.87;2.73;;;17.50;99.90;;;;;;4943358;28;20236;-84
2021/08/19 08:38:08;;;;;;;5.27;3.30;;;17.50;99.90;;;;;;4939396;28;20216;-84
2021/08/19 08:40:36;;;;;;;4.73;2.90;;;17.50;99.90;;;;;;5020620;28;20655;-86
2021/08/19 08:43:03;;;;;;;7.27;4.17;;;17.50;99.90;;;;;;4995138;28;20242;-85
2021/08/19 08:45:33;;;;;;;8.07;3.47;;;17.60;99.90;;;;;;4959017;28;20684;-87
2021/08/19 08:48:00;;;;;;;3.60;2.97;;;17.70;99.90;;;;;;4982975;28;20806;-88
2021/08/19 08:50:27;;;;;;;5.83;3.33;;;17.60;99.90;;;;;;4940595;28;20296;-85
2021/08/19 08:52:54;;;;;;;3.87;2.80;;;17.60;99.90;;;;;;5021071;28;20193;-86
2021/08/19 08:55:20;;;;;;;5.70;2.53;;;17.80;99.90;;;;;;5020199;28;20186;-85
2021/08/19 08:57:46;;;;;;;6.70;4.17;;;17.60;99.90;;;;;;4967938;28;20206;-86
2021/08/19 09:00:12;;;;;;;4.37;2.87;;;17.70;99.90;;;;;;4991070;28;20760;-86
2021/08/19 09:02:39;;;;;;;5.73;2.87;;;17.80;99.90;;;;;;4968624;28;20221;-86
2021/08/19 09:05:18;;;;;;;6.03;2.87;;;17.80;99.90;;;;;;4993142;28;20213;-85
2021/08/19 09:07:48;;;;;;;5.93;3.10;;;18.00;99.90;;;;;;5027292;28;20726;-85
2021/08/19 09:10:17;;;;;;;6.87;2.83;;;18.20;99.90;;;;;;4951954;28;20225;-86
2021/08/19 09:12:43;;;;;;;5.67;3.10;;;18.20;99.90;;;;;;5005568;28;20863;-85
2021/08/19 09:15:14;;;;;;;4.77;2.87;;;18.30;99.90;;;;;;4950820;28;20218;-85
2021/08/19 09:17:51;;;;;;;7.33;3.93;;;18.20;99.90;;;;;;5019327;28;20312;-85
2021/08/19 09:20:21;;;;;;;4.73;3.37;;;18.10;99.90;;;;;;5014846;28;20670;-86
2021/08/19 09:23:12;;;;;;;4.23;2.90;;;18.10;99.90;;;;;;4994072;28;20603;-86
2021/08/19 09:25:40;;;;;;;4.37;2.87;;;18.10;99.90;;;;;;4990749;28;20214;-87
2021/08/19 09:28:26;;;;;;;3.83;2.47;;;18.30;99.90;;;;;;4990811;28;20311;-85
2021/08/19 09:30:53;;;;;;;4.07;2.40;;;18.00;99.90;;;;;;5005249;28;20244;-87
2021/08/19 09:33:24;;;;;;;9.17;3.37;;;17.70;99.90;;;;;;4995972;28;20284;-84
2021/08/19 09:35:51;;;;;;;4.40;2.53;;;17.70;99.90;;;;;;4961201;28;20237;-90
2021/08/19 09:38:23;;;;;;;2.87;2.30;;;17.80;99.90;;;;;;4992222;28;20728;-85
2021/08/19 09:41:12;;;;;;;5.43;3.13;;;17.70;99.90;;;;;;4973659;28;20210;-86
2021/08/19 09:43:52;;;;;;;4.77;2.33;;;17.70;99.90;;;;;;4985824;28;20575;-87
2021/08/19 09:46:35;;;;;;;6.00;3.33;;;17.90;99.90;;;;;;5036952;28;20194;-85
2021/08/19 09:49:02;;;;;;;4.80;3.10;;;18.00;99.90;;;;;;5002154;28;20242;-87
2021/08/19 09:51:28;;;;;;;5.90;3.30;;;18.40;99.90;;;;;;4997825;28;20264;-85
2021/08/19 09:53:58;;;;;;;3.43;2.90;;;18.80;99.90;;;;;;4983654;28;20203;-85
2021/08/19 09:56:33;;;;;;;7.33;2.80;;;18.70;99.90;;;;;;4948926;28;20210;-84
2021/08/19 09:59:19;;;;;;;4.83;2.43;;;18.70;99.90;;;;;;4959748;28;20209;-85
2021/08/19 10:01:49;;;;;;;3.77;2.50;;;18.70;99.90;;;;;;5004063;28;20636;-85
2021/08/19 10:04:15;;;;;;;3.77;2.43;;;18.70;99.90;;;;;;5003846;28;20236;-85
2021/08/19 10:06:41;;;;;;;5.77;3.53;;;18.90;99.90;;;;;;5015730;28;20238;-86
2021/08/19 10:09:07;;;;;;;7.87;2.80;;;19.10;99.90;;;;;;5026149;28;20317;-86
2021/08/19 10:11:34;;;;;;;3.10;2.53;;;19.10;99.90;;;;;;5026032;28;20292;-85
2021/08/19 10:14:01;;;;;;;3.53;2.50;;;18.90;99.90;;;;;;5025375;28;20329;-85
2021/08/19 10:16:30;;;;;;;6.47;3.10;;;18.90;99.90;;;;;;5017940;28;21055;-85
2021/08/19 10:19:04;;;;;;;3.50;2.43;;;18.80;99.90;;;;;;5032569;28;20244;-86
2021/08/19 10:21:31;;;;;;;6.67;3.10;;;19.00;99.90;;;;;;5033646;28;20281;-86
2021/08/19 10:23:58;;;;;;;4.03;2.30;;;19.00;99.90;;;;;;5031659;28;20215;-84
2021/08/19 10:26:24;;;;;;;7.00;3.10;;;18.90;99.90;;;;;;5025051;28;20214;-84
2021/08/19 10:28:51;;;;;;;6.40;3.23;;;18.90;99.90;;;;;;5033374;28;20567;-84
2021/08/19 10:31:43;;;;;;;5.73;2.77;;;19.20;99.90;;;;;;5034096;28;20202;-85
2021/08/19 10:34:17;;;;;;;3.07;2.77;;;19.30;99.90;;;;;;5033559;28;20253;-85
2021/08/19 10:36:46;;;;;;;4.77;2.70;;;19.20;99.90;;;;;;5031263;28;20661;-82
2021/08/19 10:39:23;;;;;;;5.03;2.97;;;19.20;99.90;;;;;;5033854;28;20218;-87
2021/08/19 10:41:50;;;;;;;5.93;3.57;;;19.10;99.90;;;;;;5034042;28;20706;-82
2021/08/19 10:44:17;;;;;;;7.30;3.13;;;18.90;99.90;;;;;;5032990;28;20833;-81
2021/08/19 10:46:49;;;;;;;3.87;3.07;;;18.90;99.90;;;;;;5015398;28;20210;-85
2021/08/19 10:49:30;;;;;;;6.73;3.47;;;19.00;99.90;;;;;;5031949;28;20295;-82
2021/08/19 10:52:08;;;;;;;4.03;2.83;;;19.10;99.90;;;;;;5031801;28;20549;-82
2021/08/19 10:54:43;;;;;;;4.90;3.00;;;19.20;99.90;;;;;;5034300;28;20203;-82
2021/08/19 10:57:24;;;;;;;5.63;2.73;;;18.90;99.90;;;;;;5033961;28;20647;-82
2021/08/19 11:00:10;;;;;;;6.40;3.33;;;18.90;99.90;;;;;;5033842;28;20275;-81
2021/08/19 11:02:46;;;;;;;6.93;3.30;;;19.00;99.90;;;;;;5031242;28;20211;-86
2021/08/19 11:05:21;;;;;;;5.93;3.63;;;18.80;99.90;;;;;;5035981;28;20213;-82
2021/08/19 11:07:52;;;;;;;3.43;2.73;;;18.80;99.90;;;;;;5033119;28;20270;-83
2021/08/19 11:10:30;;;;;;;5.57;2.30;;;18.70;99.90;;;;;;5034536;28;20226;-86
2021/08/19 11:13:13;;;;;;;4.60;2.83;;;18.80;99.90;;;;;;5034269;28;20257;-83
2021/08/19 11:15:49;;;;;;;3.43;2.30;;;18.60;99.90;;;;;;5016346;28;20277;-82
2021/08/19 11:18:28;;;;;;;5.70;2.83;;;18.70;99.90;;;;;;5034793;28;20195;-82
2021/08/19 11:20:54;;;;;;;5.67;3.43;;;18.90;99.90;;;;;;5020564;28;20694;-82
2021/08/19 11:23:27;;;;;;;5.03;3.20;;;18.90;99.90;;;;;;5038665;28;20925;-86
2021/08/19 11:26:03;;;;;;;3.53;2.23;;;18.80;99.90;;;;;;5035511;28;20215;-81
2021/08/19 11:28:38;;;;;;;6.53;3.30;;;18.70;99.90;;;;;;5037037;28;20577;-81
2021/08/19 11:31:16;;;;;;;7.07;3.20;;;18.60;99.90;;;;;;5038691;28;20221;-81
2021/08/19 11:33:43;;;;;;;4.03;2.83;;;18.70;99.90;;;;;;5038002;28;20212;-82
2021/08/19 11:36:10;;;;;;;3.87;2.83;;;18.60;99.90;;;;;;5029605;28;20274;-85
2021/08/19 11:38:37;;;;;;;5.00;2.93;;;18.70;99.90;;;;;;5038250;28;20211;-83
2021/08/19 11:41:22;;;;;;;7.23;2.67;;;18.70;99.90;;;;;;5035756;28;20219;-83
2021/08/19 11:43:49;;;;;;;4.67;2.90;;;18.50;99.90;;;;;;5037569;28;20229;-83
2021/08/19 11:46:24;;;;;;;7.53;2.67;;;18.20;99.90;;;;;;5027245;28;20232;-83
2021/08/19 11:48:57;;;;;;;5.20;2.80;;;18.40;99.90;;;;;;5028080;28;20291;-83
2021/08/19 11:51:24;;;;;;;8.00;3.40;;;18.30;99.90;;;;;;5036320;28;20178;-82
2021/08/19 11:53:54;;;;;;;9.27;3.80;;;18.30;99.90;;;;;;5040031;28;20194;-81
2021/08/19 11:56:21;;;;;;;6.33;3.10;;;18.40;99.90;;;;;;5037436;28;20739;-84
2021/08/19 11:58:49;;;;;;;5.13;3.20;;;18.50;99.90;;;;;;5038824;28;20232;-87
2021/08/19 12:01:16;;;;;;;4.70;2.87;;;18.40;99.90;;;;;;5037636;28;20233;-85
2021/08/19 12:03:44;;;;;;;10.07;3.33;;;18.30;99.90;;;;;;5035913;28;20229;-82
2021/08/19 12:06:11;;;;;;;7.20;2.90;;;18.30;99.90;;;;;;5032742;28;20657;-83
2021/08/19 12:08:59;;;;;;;4.70;3.03;;;18.30;99.90;;;;;;5035644;28;20738;-83
2021/08/19 12:11:28;;;;;;;5.63;3.03;;;18.30;99.90;;;;;;5037159;28;20309;-82
2021/08/19 12:13:56;;;;;;;7.53;3.53;;;18.20;99.90;;;;;;5035231;28;20207;-83
2021/08/19 12:16:27;;;;;;;4.87;2.47;;;18.20;99.90;;;;;;5037635;28;20210;-82
2021/08/19 12:19:16;;;;;;;4.30;2.67;;;18.20;99.90;;;;;;5033685;28;20206;-86
2021/08/19 12:21:53;;;;;;;5.07;1.93;;;18.30;99.90;;;;;;5038129;28;20739;-83
2021/08/19 12:24:19;;;;;;;5.93;2.43;;;18.40;99.90;;;;;;5037575;28;20571;-85
2021/08/19 12:27:04;;;;;;;7.53;2.50;;;18.40;99.90;;;;;;5037553;28;20178;-84
2021/08/19 12:29:32;;;;;;;4.17;1.93;;;17.90;99.90;;;;;;5035427;28;20210;-82
2021/08/19 12:32:00;;;;;;;3.67;2.40;;;17.90;99.90;;;;;;5038897;28;20198;-86
2021/08/19 12:34:26;;;;;;;3.30;1.90;;;18.00;99.90;;;;;;5028119;28;20225;-82
2021/08/19 12:36:53;;;;;;;3.53;1.80;;;18.00;99.90;;;;;;5027482;28;20264;-81
2021/08/19 12:39:29;;;;;;;4.40;2.47;;;17.90;99.90;;;;;;5036350;28;20655;-83
2021/08/19 12:42:10;;;;;;;6.00;3.13;;;18.10;99.90;;;;;;5026779;28;20256;-82
2021/08/19 12:44:37;;;;;;;8.63;2.30;;;18.40;99.90;;;;;;5034572;28;20217;-82
2021/08/19 12:47:04;;;;;;;3.97;3.00;;;18.30;99.90;;;;;;5034523;28;20210;-82
2021/08/19 12:49:39;;;;;;;6.43;2.80;;;18.30;99.90;;;;;;5027544;28;20221;-82